Terminal Aerodrome Forecast
Issued by NWS

Current Version | Previous Version | Graphics & Text | Print | Product List | Glossary On
Versions: 1 2 3 4 5 6 7 8 9 10 11 12 13 14 15 16 17 18 19 20 21 22 23 24 25
001
FTUS41 KRNK 201727
TAFLWB
TAF
KLWB 201727Z 2018/2118 27012KT P6SM SCT027 BKN080
     FM202300 27008KT P6SM SCT020
     FM210000 28008KT P6SM BKN015
     FM210200 28007KT P6SM BKN035 WS020/29035KT
     FM210500 28006KT P6SM BKN015 WS020/29035KT
     FM211000 27005KT P6SM BKN015=

USA.gov is the U.S. government's official web portal to all federal, state and local government web resources and services.